sensor_id;sensor_type;location;lat;lon;timestamp;P1;durP1;ratioP1;P2;durP2;ratioP2
55328;SDS011;41205;44.264;19.884;2022-12-20T00:01:13;63.70;;;35.00;;
55328;SDS011;41205;44.264;19.884;2022-12-20T00:03:40;59.67;;;31.83;;
55328;SDS011;41205;44.264;19.884;2022-12-20T00:06:06;59.25;;;31.90;;
55328;SDS011;41205;44.264;19.884;2022-12-20T00:08:32;61.30;;;32.50;;
55328;SDS011;41205;44.264;19.884;2022-12-20T00:10:59;48.10;;;28.80;;
55328;SDS011;41205;44.264;19.884;2022-12-20T00:13:26;61.70;;;36.17;;
55328;SDS011;41205;44.264;19.884;2022-12-20T00:18:35;44.05;;;24.55;;
55328;SDS011;41205;44.264;19.884;2022-12-20T00:21:02;51.65;;;28.45;;
55328;SDS011;41205;44.264;19.884;2022-12-20T00:23:29;45.22;;;25.88;;
55328;SDS011;41205;44.264;19.884;2022-12-20T00:28:31;82.78;;;45.13;;
55328;SDS011;41205;44.264;19.884;2022-12-20T00:30:57;166.70;;;85.10;;
55328;SDS011;41205;44.264;19.884;2022-12-20T00:33:23;64.68;;;33.72;;
55328;SDS011;41205;44.264;19.884;2022-12-20T00:35:48;112.47;;;70.00;;
55328;SDS011;41205;44.264;19.884;2022-12-20T00:38:14;61.83;;;36.72;;
55328;SDS011;41205;44.264;19.884;2022-12-20T00:40:40;59.30;;;37.33;;
55328;SDS011;41205;44.264;19.884;2022-12-20T00:43:06;63.55;;;38.97;;
55328;SDS011;41205;44.264;19.884;2022-12-20T00:45:31;50.13;;;28.20;;
55328;SDS011;41205;44.264;19.884;2022-12-20T00:47:57;89.63;;;51.40;;
55328;SDS011;41205;44.264;19.884;2022-12-20T00:50:23;54.45;;;27.98;;
55328;SDS011;41205;44.264;19.884;2022-12-20T00:52:49;49.25;;;26.95;;
55328;SDS011;41205;44.264;19.884;2022-12-20T00:55:14;64.97;;;35.38;;
55328;SDS011;41205;44.264;19.884;2022-12-20T00:57:40;55.45;;;31.65;;
55328;SDS011;41205;44.264;19.884;2022-12-20T01:00:06;67.80;;;39.17;;
55328;SDS011;41205;44.264;19.884;2022-12-20T01:02:32;61.92;;;32.85;;
55328;SDS011;41205;44.264;19.884;2022-12-20T01:04:58;58.40;;;34.30;;
55328;SDS011;41205;44.264;19.884;2022-12-20T01:07:23;69.55;;;38.95;;
55328;SDS011;41205;44.264;19.884;2022-12-20T01:09:50;75.30;;;41.33;;
55328;SDS011;41205;44.264;19.884;2022-12-20T01:12:15;69.72;;;41.63;;
55328;SDS011;41205;44.264;19.884;2022-12-20T01:14:42;73.95;;;38.33;;
55328;SDS011;41205;44.264;19.884;2022-12-20T01:17:08;64.28;;;37.38;;
55328;SDS011;41205;44.264;19.884;2022-12-20T01:19:33;62.38;;;33.55;;
55328;SDS011;41205;44.264;19.884;2022-12-20T01:21:59;84.22;;;46.78;;
55328;SDS011;41205;44.264;19.884;2022-12-20T01:24:25;68.90;;;39.60;;
55328;SDS011;41205;44.264;19.884;2022-12-20T01:26:51;120.50;;;67.20;;
55328;SDS011;41205;44.264;19.884;2022-12-20T01:29:16;96.88;;;56.60;;
55328;SDS011;41205;44.264;19.884;2022-12-20T01:31:42;98.13;;;52.47;;
55328;SDS011;41205;44.264;19.884;2022-12-20T01:34:08;96.05;;;52.05;;
55328;SDS011;41205;44.264;19.884;2022-12-20T01:36:34;120.10;;;68.22;;
55328;SDS011;41205;44.264;19.884;2022-12-20T01:39:03;143.18;;;76.85;;
55328;SDS011;41205;44.264;19.884;2022-12-20T01:41:32;96.18;;;53.25;;
55328;SDS011;41205;44.264;19.884;2022-12-20T01:44:00;103.60;;;55.13;;
55328;SDS011;41205;44.264;19.884;2022-12-20T01:46:50;92.53;;;48.50;;
55328;SDS011;41205;44.264;19.884;2022-12-20T01:49:18;70.75;;;37.08;;
55328;SDS011;41205;44.264;19.884;2022-12-20T01:51:49;77.85;;;42.03;;
55328;SDS011;41205;44.264;19.884;2022-12-20T01:54:35;75.55;;;41.78;;
55328;SDS011;41205;44.264;19.884;2022-12-20T01:57:09;50.30;;;29.02;;
55328;SDS011;41205;44.264;19.884;2022-12-20T01:59:48;68.82;;;39.72;;
55328;SDS011;41205;44.264;19.884;2022-12-20T02:02:16;79.50;;;43.75;;
55328;SDS011;41205;44.264;19.884;2022-12-20T02:04:42;83.95;;;45.03;;
55328;SDS011;41205;44.264;19.884;2022-12-20T02:07:08;50.70;;;24.67;;
55328;SDS011;41205;44.264;19.884;2022-12-20T02:09:37;39.15;;;23.25;;
55328;SDS011;41205;44.264;19.884;2022-12-20T02:12:19;42.33;;;23.75;;
55328;SDS011;41205;44.264;19.884;2022-12-20T02:28:14;45.17;;;27.65;;
55328;SDS011;41205;44.264;19.884;2022-12-20T02:31:10;49.22;;;27.88;;
55328;SDS011;41205;44.264;19.884;2022-12-20T02:33:41;50.42;;;26.98;;
55328;SDS011;41205;44.264;19.884;2022-12-20T02:36:13;49.28;;;25.85;;
55328;SDS011;41205;44.264;19.884;2022-12-20T02:38:40;44.78;;;24.25;;
55328;SDS011;41205;44.264;19.884;2022-12-20T02:41:08;57.95;;;30.63;;
55328;SDS011;41205;44.264;19.884;2022-12-20T02:43:41;49.53;;;27.98;;
55328;SDS011;41205;44.264;19.884;2022-12-20T02:46:28;58.72;;;31.60;;
55328;SDS011;41205;44.264;19.884;2022-12-20T02:48:57;71.05;;;39.03;;
55328;SDS011;41205;44.264;19.884;2022-12-20T02:51:25;64.60;;;34.42;;
55328;SDS011;41205;44.264;19.884;2022-12-20T02:53:53;53.97;;;30.73;;
55328;SDS011;41205;44.264;19.884;2022-12-20T02:56:37;47.08;;;29.27;;
55328;SDS011;41205;44.264;19.884;2022-12-20T02:59:09;52.30;;;27.80;;
55328;SDS011;41205;44.264;19.884;2022-12-20T03:01:46;49.03;;;27.50;;
55328;SDS011;41205;44.264;19.884;2022-12-20T03:04:16;42.80;;;24.77;;
55328;SDS011;41205;44.264;19.884;2022-12-20T03:07:03;52.35;;;28.38;;
55328;SDS011;41205;44.264;19.884;2022-12-20T03:09:32;50.25;;;26.75;;
55328;SDS011;41205;44.264;19.884;2022-12-20T03:12:00;51.78;;;28.88;;
55328;SDS011;41205;44.264;19.884;2022-12-20T03:14:26;46.20;;;27.50;;
55328;SDS011;41205;44.264;19.884;2022-12-20T03:16:52;44.95;;;24.63;;
55328;SDS011;41205;44.264;19.884;2022-12-20T03:19:18;58.22;;;29.95;;
55328;SDS011;41205;44.264;19.884;2022-12-20T03:21:44;55.72;;;29.67;;
55328;SDS011;41205;44.264;19.884;2022-12-20T03:24:10;51.65;;;27.08;;
55328;SDS011;41205;44.264;19.884;2022-12-20T03:26:37;40.40;;;23.70;;
55328;SDS011;41205;44.264;19.884;2022-12-20T03:29:04;45.70;;;25.77;;
55328;SDS011;41205;44.264;19.884;2022-12-20T03:31:30;51.00;;;25.88;;
55328;SDS011;41205;44.264;19.884;2022-12-20T03:33:56;44.92;;;24.65;;
55328;SDS011;41205;44.264;19.884;2022-12-20T03:36:22;45.47;;;26.90;;
55328;SDS011;41205;44.264;19.884;2022-12-20T03:38:49;48.45;;;26.08;;
55328;SDS011;41205;44.264;19.884;2022-12-20T03:41:15;50.38;;;27.10;;
55328;SDS011;41205;44.264;19.884;2022-12-20T03:43:41;48.38;;;26.60;;
55328;SDS011;41205;44.264;19.884;2022-12-20T03:46:07;50.92;;;25.63;;
55328;SDS011;41205;44.264;19.884;2022-12-20T03:48:32;44.35;;;23.50;;
55328;SDS011;41205;44.264;19.884;2022-12-20T03:50:58;39.28;;;22.10;;
55328;SDS011;41205;44.264;19.884;2022-12-20T03:53:24;41.95;;;25.08;;
55328;SDS011;41205;44.264;19.884;2022-12-20T03:55:50;41.78;;;21.00;;
55328;SDS011;41205;44.264;19.884;2022-12-20T03:58:15;37.67;;;22.45;;
55328;SDS011;41205;44.264;19.884;2022-12-20T04:00:41;44.80;;;26.08;;
55328;SDS011;41205;44.264;19.884;2022-12-20T04:03:07;44.47;;;24.63;;
55328;SDS011;41205;44.264;19.884;2022-12-20T04:05:32;42.88;;;23.67;;
55328;SDS011;41205;44.264;19.884;2022-12-20T04:07:58;42.50;;;24.75;;
55328;SDS011;41205;44.264;19.884;2022-12-20T04:10:24;41.15;;;24.52;;
55328;SDS011;41205;44.264;19.884;2022-12-20T04:12:50;52.55;;;27.75;;
55328;SDS011;41205;44.264;19.884;2022-12-20T04:15:16;42.45;;;22.13;;
55328;SDS011;41205;44.264;19.884;2022-12-20T04:17:41;47.00;;;25.85;;
55328;SDS011;41205;44.264;19.884;2022-12-20T04:20:07;46.83;;;25.08;;
55328;SDS011;41205;44.264;19.884;2022-12-20T04:22:47;43.03;;;24.67;;
55328;SDS011;41205;44.264;19.884;2022-12-20T04:25:15;50.55;;;24.75;;
55328;SDS011;41205;44.264;19.884;2022-12-20T04:27:43;44.97;;;28.98;;
55328;SDS011;41205;44.264;19.884;2022-12-20T04:30:10;42.40;;;26.55;;
55328;SDS011;41205;44.264;19.884;2022-12-20T04:32:36;56.25;;;29.77;;
55328;SDS011;41205;44.264;19.884;2022-12-20T04:35:02;51.65;;;25.15;;
55328;SDS011;41205;44.264;19.884;2022-12-20T04:37:29;50.00;;;25.83;;
55328;SDS011;41205;44.264;19.884;2022-12-20T04:39:55;52.03;;;28.00;;
55328;SDS011;41205;44.264;19.884;2022-12-20T04:42:22;57.45;;;27.48;;
55328;SDS011;41205;44.264;19.884;2022-12-20T04:44:48;56.65;;;30.83;;
55328;SDS011;41205;44.264;19.884;2022-12-20T04:47:14;48.35;;;26.98;;
55328;SDS011;41205;44.264;19.884;2022-12-20T04:49:40;49.05;;;27.05;;
55328;SDS011;41205;44.264;19.884;2022-12-20T04:52:05;56.08;;;28.13;;
55328;SDS011;41205;44.264;19.884;2022-12-20T04:54:50;52.85;;;28.13;;
55328;SDS011;41205;44.264;19.884;2022-12-20T04:57:15;49.60;;;26.92;;
55328;SDS011;41205;44.264;19.884;2022-12-20T04:59:41;58.15;;;28.27;;
55328;SDS011;41205;44.264;19.884;2022-12-20T05:02:07;56.00;;;30.38;;
55328;SDS011;41205;44.264;19.884;2022-12-20T05:04:32;51.95;;;27.65;;
55328;SDS011;41205;44.264;19.884;2022-12-20T05:06:58;60.00;;;32.22;;
55328;SDS011;41205;44.264;19.884;2022-12-20T05:09:24;66.32;;;34.90;;
55328;SDS011;41205;44.264;19.884;2022-12-20T05:11:50;66.72;;;33.08;;
55328;SDS011;41205;44.264;19.884;2022-12-20T05:14:15;59.20;;;32.20;;
55328;SDS011;41205;44.264;19.884;2022-12-20T05:16:41;55.05;;;32.58;;
55328;SDS011;41205;44.264;19.884;2022-12-20T05:19:06;59.30;;;32.13;;
55328;SDS011;41205;44.264;19.884;2022-12-20T05:21:32;65.55;;;28.58;;
55328;SDS011;41205;44.264;19.884;2022-12-20T05:24:16;51.50;;;27.42;;
55328;SDS011;41205;44.264;19.884;2022-12-20T05:27:00;64.05;;;31.92;;
55328;SDS011;41205;44.264;19.884;2022-12-20T05:29:27;69.70;;;33.53;;
55328;SDS011;41205;44.264;19.884;2022-12-20T05:31:52;69.38;;;34.65;;
55328;SDS011;41205;44.264;19.884;2022-12-20T05:34:18;69.53;;;34.55;;
55328;SDS011;41205;44.264;19.884;2022-12-20T05:36:44;72.07;;;33.38;;
55328;SDS011;41205;44.264;19.884;2022-12-20T05:39:10;60.83;;;34.22;;
55328;SDS011;41205;44.264;19.884;2022-12-20T05:41:36;78.93;;;36.28;;
55328;SDS011;41205;44.264;19.884;2022-12-20T05:44:02;73.38;;;37.25;;
55328;SDS011;41205;44.264;19.884;2022-12-20T05:46:28;72.00;;;37.03;;
55328;SDS011;41205;44.264;19.884;2022-12-20T05:48:54;71.70;;;39.17;;
55328;SDS011;41205;44.264;19.884;2022-12-20T05:51:20;78.03;;;41.60;;
55328;SDS011;41205;44.264;19.884;2022-12-20T05:53:46;73.85;;;40.42;;
55328;SDS011;41205;44.264;19.884;2022-12-20T05:56:11;69.05;;;39.45;;
55328;SDS011;41205;44.264;19.884;2022-12-20T05:58:37;71.95;;;35.70;;
55328;SDS011;41205;44.264;19.884;2022-12-20T06:01:04;69.70;;;37.95;;
55328;SDS011;41205;44.264;19.884;2022-12-20T06:03:31;70.25;;;38.35;;
55328;SDS011;41205;44.264;19.884;2022-12-20T06:05:57;78.88;;;43.55;;
55328;SDS011;41205;44.264;19.884;2022-12-20T06:08:23;72.65;;;37.00;;
55328;SDS011;41205;44.264;19.884;2022-12-20T06:10:49;68.68;;;35.92;;
55328;SDS011;41205;44.264;19.884;2022-12-20T06:13:15;64.18;;;38.60;;
55328;SDS011;41205;44.264;19.884;2022-12-20T06:15:41;79.57;;;40.97;;
55328;SDS011;41205;44.264;19.884;2022-12-20T06:18:06;80.43;;;43.42;;
55328;SDS011;41205;44.264;19.884;2022-12-20T06:20:33;85.13;;;44.63;;
55328;SDS011;41205;44.264;19.884;2022-12-20T06:22:59;71.60;;;38.20;;
55328;SDS011;41205;44.264;19.884;2022-12-20T06:25:25;71.97;;;37.47;;
55328;SDS011;41205;44.264;19.884;2022-12-20T06:27:51;72.00;;;34.35;;
55328;SDS011;41205;44.264;19.884;2022-12-20T06:30:17;66.35;;;34.28;;
55328;SDS011;41205;44.264;19.884;2022-12-20T06:32:43;63.28;;;35.40;;
55328;SDS011;41205;44.264;19.884;2022-12-20T06:35:09;76.70;;;43.58;;
55328;SDS011;41205;44.264;19.884;2022-12-20T06:37:35;73.53;;;38.60;;
55328;SDS011;41205;44.264;19.884;2022-12-20T06:40:01;82.60;;;42.25;;
55328;SDS011;41205;44.264;19.884;2022-12-20T06:42:28;81.40;;;45.92;;
55328;SDS011;41205;44.264;19.884;2022-12-20T06:44:54;74.35;;;35.38;;
55328;SDS011;41205;44.264;19.884;2022-12-20T06:47:19;73.50;;;39.38;;
55328;SDS011;41205;44.264;19.884;2022-12-20T06:49:45;84.05;;;42.53;;
55328;SDS011;41205;44.264;19.884;2022-12-20T06:52:11;89.25;;;47.58;;
55328;SDS011;41205;44.264;19.884;2022-12-20T06:54:36;81.80;;;44.42;;
55328;SDS011;41205;44.264;19.884;2022-12-20T06:57:02;94.85;;;51.83;;
55328;SDS011;41205;44.264;19.884;2022-12-20T06:59:28;83.60;;;48.95;;
55328;SDS011;41205;44.264;19.884;2022-12-20T07:01:53;91.30;;;46.85;;
55328;SDS011;41205;44.264;19.884;2022-12-20T07:04:19;71.43;;;38.97;;
55328;SDS011;41205;44.264;19.884;2022-12-20T07:06:45;72.53;;;41.15;;
55328;SDS011;41205;44.264;19.884;2022-12-20T07:09:11;63.05;;;33.80;;
55328;SDS011;41205;44.264;19.884;2022-12-20T07:11:37;59.25;;;33.75;;
55328;SDS011;41205;44.264;19.884;2022-12-20T07:14:02;63.95;;;35.47;;
55328;SDS011;41205;44.264;19.884;2022-12-20T07:16:28;58.95;;;33.65;;
55328;SDS011;41205;44.264;19.884;2022-12-20T07:18:56;67.85;;;35.90;;
55328;SDS011;41205;44.264;19.884;2022-12-20T07:21:21;62.83;;;36.35;;
55328;SDS011;41205;44.264;19.884;2022-12-20T07:23:47;67.53;;;37.80;;
55328;SDS011;41205;44.264;19.884;2022-12-20T07:26:13;80.22;;;39.70;;
55328;SDS011;41205;44.264;19.884;2022-12-20T07:28:39;73.95;;;39.17;;
55328;SDS011;41205;44.264;19.884;2022-12-20T07:31:05;74.95;;;39.58;;
55328;SDS011;41205;44.264;19.884;2022-12-20T07:33:31;69.55;;;38.63;;
55328;SDS011;41205;44.264;19.884;2022-12-20T07:36:01;77.15;;;39.42;;
55328;SDS011;41205;44.264;19.884;2022-12-20T07:38:28;67.50;;;37.40;;
55328;SDS011;41205;44.264;19.884;2022-12-20T07:40:54;67.47;;;36.97;;
55328;SDS011;41205;44.264;19.884;2022-12-20T07:43:20;78.15;;;38.67;;
55328;SDS011;41205;44.264;19.884;2022-12-20T07:45:45;78.40;;;41.15;;
55328;SDS011;41205;44.264;19.884;2022-12-20T07:48:11;74.68;;;37.40;;
55328;SDS011;41205;44.264;19.884;2022-12-20T07:50:37;71.97;;;40.13;;
55328;SDS011;41205;44.264;19.884;2022-12-20T07:53:04;85.82;;;45.63;;
55328;SDS011;41205;44.264;19.884;2022-12-20T07:55:31;74.80;;;38.60;;
55328;SDS011;41205;44.264;19.884;2022-12-20T07:57:59;73.65;;;39.45;;
55328;SDS011;41205;44.264;19.884;2022-12-20T08:00:29;74.13;;;42.65;;
55328;SDS011;41205;44.264;19.884;2022-12-20T08:03:10;81.97;;;44.92;;
55328;SDS011;41205;44.264;19.884;2022-12-20T08:05:42;80.57;;;42.85;;
55328;SDS011;41205;44.264;19.884;2022-12-20T08:08:10;78.90;;;47.03;;
55328;SDS011;41205;44.264;19.884;2022-12-20T08:10:36;60.03;;;35.45;;
55328;SDS011;41205;44.264;19.884;2022-12-20T08:13:03;60.88;;;33.97;;
55328;SDS011;41205;44.264;19.884;2022-12-20T08:15:30;63.55;;;32.65;;
55328;SDS011;41205;44.264;19.884;2022-12-20T08:17:57;57.72;;;30.63;;
55328;SDS011;41205;44.264;19.884;2022-12-20T08:20:23;54.20;;;31.83;;
55328;SDS011;41205;44.264;19.884;2022-12-20T08:22:49;56.80;;;33.35;;
55328;SDS011;41205;44.264;19.884;2022-12-20T08:25:15;64.43;;;34.60;;
55328;SDS011;41205;44.264;19.884;2022-12-20T08:27:41;53.10;;;28.60;;
55328;SDS011;41205;44.264;19.884;2022-12-20T08:30:06;51.58;;;28.88;;
55328;SDS011;41205;44.264;19.884;2022-12-20T08:32:34;56.42;;;31.20;;
55328;SDS011;41205;44.264;19.884;2022-12-20T08:35:00;57.38;;;33.95;;
55328;SDS011;41205;44.264;19.884;2022-12-20T08:37:26;60.50;;;34.85;;
55328;SDS011;41205;44.264;19.884;2022-12-20T08:39:52;62.15;;;37.17;;
55328;SDS011;41205;44.264;19.884;2022-12-20T08:42:18;55.10;;;35.63;;
55328;SDS011;41205;44.264;19.884;2022-12-20T08:44:43;66.50;;;39.22;;
55328;SDS011;41205;44.264;19.884;2022-12-20T08:47:09;61.67;;;40.00;;
55328;SDS011;41205;44.264;19.884;2022-12-20T08:49:35;65.22;;;44.38;;
55328;SDS011;41205;44.264;19.884;2022-12-20T08:52:00;91.57;;;65.15;;
55328;SDS011;41205;44.264;19.884;2022-12-20T08:54:26;93.03;;;68.72;;
55328;SDS011;41205;44.264;19.884;2022-12-20T08:56:52;76.90;;;55.45;;
55328;SDS011;41205;44.264;19.884;2022-12-20T08:59:18;64.30;;;46.15;;
55328;SDS011;41205;44.264;19.884;2022-12-20T09:01:43;59.53;;;42.80;;
55328;SDS011;41205;44.264;19.884;2022-12-20T09:04:09;57.92;;;43.35;;
55328;SDS011;41205;44.264;19.884;2022-12-20T09:06:35;60.83;;;45.45;;
55328;SDS011;41205;44.264;19.884;2022-12-20T09:09:02;112.63;;;82.35;;
55328;SDS011;41205;44.264;19.884;2022-12-20T09:11:28;80.68;;;63.33;;
55328;SDS011;41205;44.264;19.884;2022-12-20T09:13:55;100.97;;;77.95;;
55328;SDS011;41205;44.264;19.884;2022-12-20T09:16:23;66.80;;;52.15;;
55328;SDS011;41205;44.264;19.884;2022-12-20T09:18:55;63.63;;;46.65;;
55328;SDS011;41205;44.264;19.884;2022-12-20T09:21:22;89.40;;;64.95;;
55328;SDS011;41205;44.264;19.884;2022-12-20T09:23:51;116.95;;;80.35;;
55328;SDS011;41205;44.264;19.884;2022-12-20T09:26:19;115.70;;;84.03;;
55328;SDS011;41205;44.264;19.884;2022-12-20T09:28:46;123.72;;;86.40;;
55328;SDS011;41205;44.264;19.884;2022-12-20T09:31:13;204.88;;;138.30;;
55328;SDS011;41205;44.264;19.884;2022-12-20T09:33:41;133.13;;;92.28;;
55328;SDS011;41205;44.264;19.884;2022-12-20T09:36:18;126.53;;;90.72;;
55328;SDS011;41205;44.264;19.884;2022-12-20T09:38:45;139.00;;;88.05;;
55328;SDS011;41205;44.264;19.884;2022-12-20T09:43:59;195.23;;;136.45;;
55328;SDS011;41205;44.264;19.884;2022-12-20T09:46:29;118.38;;;72.90;;
55328;SDS011;41205;44.264;19.884;2022-12-20T09:48:55;105.70;;;68.10;;
55328;SDS011;41205;44.264;19.884;2022-12-20T09:51:27;108.20;;;70.00;;
55328;SDS011;41205;44.264;19.884;2022-12-20T09:59:55;113.47;;;74.90;;
55328;SDS011;41205;44.264;19.884;2022-12-20T10:02:22;125.95;;;80.10;;
55328;SDS011;41205;44.264;19.884;2022-12-20T10:04:50;112.68;;;71.78;;
55328;SDS011;41205;44.264;19.884;2022-12-20T10:15:19;123.85;;;73.90;;
55328;SDS011;41205;44.264;19.884;2022-12-20T10:20:54;157.90;;;91.30;;
55328;SDS011;41205;44.264;19.884;2022-12-20T10:26:26;102.40;;;60.47;;
55328;SDS011;41205;44.264;19.884;2022-12-20T10:28:53;109.00;;;69.93;;
55328;SDS011;41205;44.264;19.884;2022-12-20T10:31:19;114.18;;;68.80;;
55328;SDS011;41205;44.264;19.884;2022-12-20T10:33:45;105.50;;;63.10;;
55328;SDS011;41205;44.264;19.884;2022-12-20T10:36:22;108.40;;;65.57;;
55328;SDS011;41205;44.264;19.884;2022-12-20T10:38:53;100.68;;;59.72;;
55328;SDS011;41205;44.264;19.884;2022-12-20T10:41:28;93.60;;;52.08;;
55328;SDS011;41205;44.264;19.884;2022-12-20T10:46:48;76.35;;;42.95;;
55328;SDS011;41205;44.264;19.884;2022-12-20T10:49:22;87.78;;;48.47;;
55328;SDS011;41205;44.264;19.884;2022-12-20T10:51:56;114.82;;;63.08;;
55328;SDS011;41205;44.264;19.884;2022-12-20T10:54:30;90.22;;;53.15;;
55328;SDS011;41205;44.264;19.884;2022-12-20T10:59:59;67.55;;;38.78;;
55328;SDS011;41205;44.264;19.884;2022-12-20T11:02:33;62.20;;;34.72;;
55328;SDS011;41205;44.264;19.884;2022-12-20T11:05:22;90.68;;;48.28;;
55328;SDS011;41205;44.264;19.884;2022-12-20T11:07:55;109.47;;;60.63;;
55328;SDS011;41205;44.264;19.884;2022-12-20T11:10:24;77.93;;;45.78;;
55328;SDS011;41205;44.264;19.884;2022-12-20T11:12:54;88.95;;;50.75;;
55328;SDS011;41205;44.264;19.884;2022-12-20T11:15:34;98.00;;;55.67;;
55328;SDS011;41205;44.264;19.884;2022-12-20T11:20:43;77.32;;;43.30;;
55328;SDS011;41205;44.264;19.884;2022-12-20T11:23:33;73.63;;;42.58;;
55328;SDS011;41205;44.264;19.884;2022-12-20T11:31:59;72.60;;;41.92;;
55328;SDS011;41205;44.264;19.884;2022-12-20T11:37:23;77.93;;;45.35;;
55328;SDS011;41205;44.264;19.884;2022-12-20T11:42:47;66.53;;;39.10;;
55328;SDS011;41205;44.264;19.884;2022-12-20T11:50:39;78.80;;;43.15;;
55328;SDS011;41205;44.264;19.884;2022-12-20T11:55:57;80.88;;;45.55;;
55328;SDS011;41205;44.264;19.884;2022-12-20T12:01:16;66.82;;;41.92;;
55328;SDS011;41205;44.264;19.884;2022-12-20T12:03:52;56.17;;;34.58;;
55328;SDS011;41205;44.264;19.884;2022-12-20T12:06:27;73.65;;;44.55;;
55328;SDS011;41205;44.264;19.884;2022-12-20T12:09:03;72.45;;;44.58;;
55328;SDS011;41205;44.264;19.884;2022-12-20T12:11:32;58.40;;;36.28;;
55328;SDS011;41205;44.264;19.884;2022-12-20T12:14:02;82.55;;;48.83;;
55328;SDS011;41205;44.264;19.884;2022-12-20T12:18:58;119.53;;;65.25;;
55328;SDS011;41205;44.264;19.884;2022-12-20T12:21:36;80.43;;;50.58;;
55328;SDS011;41205;44.264;19.884;2022-12-20T12:24:28;66.97;;;41.33;;
55328;SDS011;41205;44.264;19.884;2022-12-20T12:27:00;72.95;;;39.92;;
55328;SDS011;41205;44.264;19.884;2022-12-20T12:29:27;94.30;;;53.97;;
55328;SDS011;41205;44.264;19.884;2022-12-20T12:31:56;66.75;;;41.78;;
55328;SDS011;41205;44.264;19.884;2022-12-20T12:45:36;82.05;;;44.47;;
55328;SDS011;41205;44.264;19.884;2022-12-20T12:50:41;75.93;;;43.85;;
55328;SDS011;41205;44.264;19.884;2022-12-20T12:53:19;103.63;;;61.38;;
55328;SDS011;41205;44.264;19.884;2022-12-20T12:55:54;67.75;;;41.92;;
55328;SDS011;41205;44.264;19.884;2022-12-20T13:00:52;66.22;;;41.42;;
55328;SDS011;41205;44.264;19.884;2022-12-20T13:03:34;76.90;;;45.78;;
55328;SDS011;41205;44.264;19.884;2022-12-20T13:16:45;86.63;;;53.45;;
55328;SDS011;41205;44.264;19.884;2022-12-20T13:26:59;70.78;;;44.20;;
55328;SDS011;41205;44.264;19.884;2022-12-20T13:29:31;80.90;;;45.47;;
55328;SDS011;41205;44.264;19.884;2022-12-20T13:31:58;76.25;;;42.42;;
55328;SDS011;41205;44.264;19.884;2022-12-20T13:34:35;71.85;;;45.58;;
55328;SDS011;41205;44.264;19.884;2022-12-20T13:37:24;61.40;;;41.13;;
55328;SDS011;41205;44.264;19.884;2022-12-20T13:39:51;71.38;;;43.15;;
55328;SDS011;41205;44.264;19.884;2022-12-20T13:42:31;54.67;;;33.78;;
55328;SDS011;41205;44.264;19.884;2022-12-20T13:45:02;51.15;;;32.15;;
55328;SDS011;41205;44.264;19.884;2022-12-20T13:47:31;60.05;;;34.35;;
55328;SDS011;41205;44.264;19.884;2022-12-20T13:50:25;72.10;;;43.20;;
55328;SDS011;41205;44.264;19.884;2022-12-20T13:52:51;85.88;;;49.05;;
55328;SDS011;41205;44.264;19.884;2022-12-20T13:55:34;85.70;;;48.50;;
55328;SDS011;41205;44.264;19.884;2022-12-20T13:58:10;63.72;;;38.83;;
55328;SDS011;41205;44.264;19.884;2022-12-20T14:00:39;73.45;;;45.28;;
55328;SDS011;41205;44.264;19.884;2022-12-20T14:03:09;67.60;;;41.97;;
55328;SDS011;41205;44.264;19.884;2022-12-20T14:05:44;90.70;;;55.40;;
55328;SDS011;41205;44.264;19.884;2022-12-20T14:08:17;215.27;;;122.22;;
55328;SDS011;41205;44.264;19.884;2022-12-20T14:10:46;163.77;;;91.35;;
55328;SDS011;41205;44.264;19.884;2022-12-20T14:13:18;122.70;;;66.07;;
55328;SDS011;41205;44.264;19.884;2022-12-20T14:15:47;146.95;;;84.35;;
55328;SDS011;41205;44.264;19.884;2022-12-20T14:18:23;138.25;;;82.10;;
55328;SDS011;41205;44.264;19.884;2022-12-20T14:20:58;155.77;;;91.20;;
55328;SDS011;41205;44.264;19.884;2022-12-20T14:23:36;198.00;;;123.03;;
55328;SDS011;41205;44.264;19.884;2022-12-20T14:26:05;230.27;;;135.85;;
55328;SDS011;41205;44.264;19.884;2022-12-20T14:28:36;402.27;;;225.02;;
55328;SDS011;41205;44.264;19.884;2022-12-20T14:31:27;370.77;;;203.50;;
55328;SDS011;41205;44.264;19.884;2022-12-20T14:36:40;290.23;;;161.95;;
55328;SDS011;41205;44.264;19.884;2022-12-20T14:39:27;202.57;;;124.10;;
55328;SDS011;41205;44.264;19.884;2022-12-20T14:41:59;143.65;;;91.30;;
55328;SDS011;41205;44.264;19.884;2022-12-20T14:44:31;155.48;;;99.55;;
55328;SDS011;41205;44.264;19.884;2022-12-20T14:49:31;407.00;;;232.63;;
55328;SDS011;41205;44.264;19.884;2022-12-20T14:52:05;846.40;;;569.88;;
55328;SDS011;41205;44.264;19.884;2022-12-20T14:54:38;537.65;;;386.60;;
55328;SDS011;41205;44.264;19.884;2022-12-20T14:57:36;286.27;;;181.32;;
55328;SDS011;41205;44.264;19.884;2022-12-20T15:05:31;132.30;;;79.05;;
55328;SDS011;41205;44.264;19.884;2022-12-20T15:08:16;112.90;;;67.47;;
55328;SDS011;41205;44.264;19.884;2022-12-20T15:13:31;132.90;;;76.20;;
55328;SDS011;41205;44.264;19.884;2022-12-20T15:18:56;123.65;;;79.57;;
55328;SDS011;41205;44.264;19.884;2022-12-20T15:21:30;170.20;;;105.28;;
55328;SDS011;41205;44.264;19.884;2022-12-20T15:24:03;164.57;;;112.55;;
55328;SDS011;41205;44.264;19.884;2022-12-20T15:26:33;173.15;;;117.78;;
55328;SDS011;41205;44.264;19.884;2022-12-20T15:29:00;126.45;;;79.45;;
55328;SDS011;41205;44.264;19.884;2022-12-20T15:31:27;139.30;;;96.50;;
55328;SDS011;41205;44.264;19.884;2022-12-20T15:33:53;463.48;;;224.43;;
55328;SDS011;41205;44.264;19.884;2022-12-20T15:36:22;469.20;;;216.90;;
55328;SDS011;41205;44.264;19.884;2022-12-20T15:38:52;156.70;;;86.57;;
55328;SDS011;41205;44.264;19.884;2022-12-20T15:41:23;203.27;;;120.82;;
55328;SDS011;41205;44.264;19.884;2022-12-20T15:43:58;227.75;;;143.90;;
55328;SDS011;41205;44.264;19.884;2022-12-20T15:46:27;226.80;;;139.88;;
55328;SDS011;41205;44.264;19.884;2022-12-20T15:48:53;175.10;;;104.82;;
55328;SDS011;41205;44.264;19.884;2022-12-20T15:53:56;121.40;;;71.15;;
55328;SDS011;41205;44.264;19.884;2022-12-20T15:56:23;136.80;;;79.80;;
55328;SDS011;41205;44.264;19.884;2022-12-20T15:58:50;166.18;;;94.90;;
55328;SDS011;41205;44.264;19.884;2022-12-20T16:01:26;144.50;;;92.15;;
55328;SDS011;41205;44.264;19.884;2022-12-20T16:03:56;180.95;;;110.65;;
55328;SDS011;41205;44.264;19.884;2022-12-20T16:06:22;140.52;;;80.30;;
55328;SDS011;41205;44.264;19.884;2022-12-20T16:08:48;128.75;;;82.60;;
55328;SDS011;41205;44.264;19.884;2022-12-20T16:11:20;141.05;;;81.60;;
55328;SDS011;41205;44.264;19.884;2022-12-20T16:13:48;168.50;;;103.43;;
55328;SDS011;41205;44.264;19.884;2022-12-20T16:16:48;259.73;;;156.48;;
55328;SDS011;41205;44.264;19.884;2022-12-20T16:19:08;234.40;;;138.73;;
55328;SDS011;41205;44.264;19.884;2022-12-20T16:21:34;163.45;;;100.70;;
55328;SDS011;41205;44.264;19.884;2022-12-20T16:24:16;121.35;;;72.50;;
55328;SDS011;41205;44.264;19.884;2022-12-20T16:26:44;121.70;;;72.38;;